Time;durP1;ratioP1;P1;durP2;ratioP2;P2;SDS_P1;SDS_P2;PMS_P1;PMS_P2;Temp;Humidity;BMP_temperature;BMP_pressure;BME280_temperature;BME280_humidity;BME280_pressure;Samples;Min_cycle;Max_cycle;Signal;HPM_P1;HPM_P2
2023/05/17 00:01:29;;;;;;;;;;;;;;;9.4;61.62598;102594.3;;;;-69
2023/05/17 00:06:27;;;;;;;;;;;;;;;9.41;61.66113;102594.9;;;;-67
2023/05/17 00:11:27;;;;;;;;;;;;;;;9.4;61.93848;102589.3;;;;-68
2023/05/17 00:16:29;;;;;;;;;;;;;;;9.41;62.10449;102596.7;;;;-68
2023/05/17 00:21:27;;;;;;;;;;;;;;;9.42;62.22949;102606.1;;;;-67
2023/05/17 00:26:24;;;;;;;0.2;0.1;;;;;;;;;;;;;-69
2023/05/17 00:26:35;;;;;;;;;;;;;;;9.44;62.37598;102604.5;;;;-68
2023/05/17 00:31:26;;;;;;;;;;;;;;;9.54;62.10254;102600.5;;;;-67
2023/05/17 00:36:26;;;;;;;;;;;;;;;9.59;61.90918;102597.7;;;;-67
2023/05/17 00:41:26;;;;;;;;;;;;;;;9.64;62.10547;102588.9;;;;-68
2023/05/17 00:46:28;;;;;;;;;;;;;;;9.68;62.44336;102576.6;;;;-67
2023/05/17 00:51:28;;;;;;;;;;;;;;;9.74;62.70801;102575.8;;;;-68
2023/05/17 00:56:26;;;;;;;0.5;0.4;;;;;;;;;;;;;-68
2023/05/17 00:56:36;;;;;;;;;;;;;;;9.8;63.0166;102568.4;;;;-67
2023/05/17 01:01:27;;;;;;;;;;;;;;;9.85;62.59082;102573.9;;;;-68
2023/05/17 01:06:26;;;;;;;;;;;;;;;9.88;62.93848;102578.5;;;;-68
2023/05/17 01:11:32;;;;;;;;;;;;;;;9.94;63.43555;102572.7;;;;-67
2023/05/17 01:16:30;;;;;;;;;;;;;;;9.94;63.43652;102576.5;;;;-67
2023/05/17 01:21:32;;;;;;;;;;;;;;;9.94;63.5127;102586.5;;;;-69
2023/05/17 01:26:26;;;;;;;0.2;0.1;;;;;;;;;;;;;-68
2023/05/17 01:26:46;;;;;;;;;;;;;;;9.91;63.53223;102584.4;;;;-68
2023/05/17 01:31:30;;;;;;;;;;;;;;;9.91;63.36426;102585.5;;;;-67
2023/05/17 01:36:27;;;;;;;;;;;;;;;9.88;63.38281;102586.6;;;;-67
2023/05/17 01:41:32;;;;;;;;;;;;;;;9.86;63.53516;102587;;;;-68
2023/05/17 01:46:29;;;;;;;;;;;;;;;9.82;63.74023;102588.1;;;;-67
2023/05/17 01:51:31;;;;;;;;;;;;;;;9.75;63.91895;102595.3;;;;-69
2023/05/17 01:56:30;;;;;;;;;;;;;;;9.72;63.82617;102602.1;;;;-67
2023/05/17 01:56:44;;;;;;;0.2;0.1;;;;;;;;;;;;;-67
2023/05/17 02:01:30;;;;;;;;;;;;;;;9.72;63.76953;102607.2;;;;-68
2023/05/17 02:06:27;;;;;;;;;;;;;;;9.72;63.71387;102608;;;;-67
2023/05/17 02:11:27;;;;;;;;;;;;;;;9.74;63.91699;102607.8;;;;-68
2023/05/17 02:16:26;;;;;;;;;;;;;;;9.7;63.86816;102615.5;;;;-67
2023/05/17 02:21:26;;;;;;;;;;;;;;;9.71;63.80176;102624.5;;;;-68
2023/05/17 02:26:27;;;;;;;;;;;;;;;9.63;63.85742;102628.4;;;;-68
2023/05/17 02:26:37;;;;;;;0.2;0.1;;;;;;;;;;;;;-68
2023/05/17 02:31:27;;;;;;;;;;;;;;;9.57;63.99219;102633.4;;;;-68
2023/05/17 02:36:29;;;;;;;;;;;;;;;9.49;63.55859;102640;;;;-69
2023/05/17 02:41:26;;;;;;;;;;;;;;;9.38;63.66504;102641.9;;;;-67
2023/05/17 02:46:26;;;;;;;;;;;;;;;9.3;63.70801;102642.2;;;;-67
2023/05/17 02:51:30;;;;;;;;;;;;;;;9.17;63.5791;102642.5;;;;-67
2023/05/17 02:56:26;;;;;;;;;;;;;;;9.09;63.5332;102642.1;;;;-68
2023/05/17 02:56:36;;;;;;;0.2;0.1;;;;;;;;;;;;;-68
2023/05/17 03:01:26;;;;;;;;;;;;;;;9.04;63.7041;102644.6;;;;-69
2023/05/17 03:06:27;;;;;;;;;;;;;;;8.94;63.56738;102643.2;;;;-67
2023/05/17 03:11:26;;;;;;;;;;;;;;;8.85;63.57617;102642.6;;;;-68
2023/05/17 03:16:26;;;;;;;;;;;;;;;8.77;63.90918;102646;;;;-68
2023/05/17 03:21:26;;;;;;;;;;;;;;;8.66;63.77051;102645.4;;;;-68
2023/05/17 03:26:27;;;;;;;;;;;;;;;8.61;63.78418;102652.8;;;;-67
2023/05/17 03:26:36;;;;;;;0.2;0.1;;;;;;;;;;;;;-67
2023/05/17 03:31:26;;;;;;;;;;;;;;;8.5;63.93457;102653.2;;;;-67
2023/05/17 03:36:26;;;;;;;;;;;;;;;8.43;63.57031;102657.4;;;;-69
2023/05/17 03:41:26;;;;;;;;;;;;;;;8.36;63.83789;102664.6;;;;-68
2023/05/17 03:46:26;;;;;;;;;;;;;;;8.27;63.60156;102665.4;;;;-67
2023/05/17 03:51:27;;;;;;;;;;;;;;;8.28;63.69336;102667.8;;;;-70
2023/05/17 03:56:26;;;;;;;;;;;;;;;8.27;63.7793;102679.6;;;;-67
2023/05/17 03:56:36;;;;;;;0.2;0.1;;;;;;;;;;;;;-67
2023/05/17 04:01:28;;;;;;;;;;;;;;;8.23;63.68555;102684.6;;;;-68
2023/05/17 04:06:26;;;;;;;;;;;;;;;8.22;63.87207;102685.2;;;;-67
2023/05/17 04:11:26;;;;;;;;;;;;;;;8.22;63.7832;102690.5;;;;-68
2023/05/17 04:16:28;;;;;;;;;;;;;;;8.19;63.87891;102697.8;;;;-67
2023/05/17 04:21:26;;;;;;;;;;;;;;;8.14;63.81543;102704.1;;;;-69
2023/05/17 04:26:26;;;;;;;;;;;;;;;8.11;63.49121;102712.5;;;;-67
2023/05/17 04:26:36;;;;;;;0.2;0.1;;;;;;;;;;;;;-67
2023/05/17 04:31:26;;;;;;;;;;;;;;;8.09;63.60938;102721.6;;;;-66
2023/05/17 04:36:27;;;;;;;;;;;;;;;8.11;63.50098;102729.6;;;;-68
2023/05/17 04:41:26;;;;;;;;;;;;;;;8.08;63.63086;102737.1;;;;-67
2023/05/17 04:46:29;;;;;;;;;;;;;;;8.13;63.36035;102740.3;;;;-68
2023/05/17 04:51:27;;;;;;;;;;;;;;;8.09;63.44434;102745.5;;;;-67
2023/05/17 04:56:26;;;;;;;;;;;;;;;8.18;63.32422;102755.9;;;;-69
2023/05/17 04:56:37;;;;;;;0.2;0.1;;;;;;;;;;;;;-69
2023/05/17 05:01:28;;;;;;;;;;;;;;;8.3;63.04297;102761.5;;;;-67
2023/05/17 05:06:26;;;;;;;;;;;;;;;8.39;63.12305;102765.2;;;;-68
2023/05/17 05:11:26;;;;;;;;;;;;;;;8.52;63.22949;102773.4;;;;-67
2023/05/17 05:16:26;;;;;;;;;;;;;;;8.62;63.04395;102783.9;;;;-67
2023/05/17 05:21:26;;;;;;;;;;;;;;;8.72;63.00293;102788.9;;;;-67
2023/05/17 05:26:26;;;;;;;;;;;;;;;8.92;63.19824;102800.7;;;;-69
2023/05/17 05:26:36;;;;;;;0.2;0.1;;;;;;;;;;;;;-69
2023/05/17 05:31:27;;;;;;;;;;;;;;;9.36;62.94141;102806.6;;;;-67
2023/05/17 05:36:26;;;;;;;;;;;;;;;10.07;61.86523;102804.4;;;;-68
2023/05/17 05:41:26;;;;;;;;;;;;;;;10.57;60.86914;102810;;;;-68
2023/05/17 05:46:26;;;;;;;;;;;;;;;10.77;60.95313;102812.8;;;;-68
2023/05/17 05:51:30;;;;;;;;;;;;;;;11.02;61.31055;102822.7;;;;-67
2023/05/17 05:56:27;;;;;;;;;;;;;;;11.04;61.55859;102822.5;;;;-67
2023/05/17 05:56:36;;;;;;;0.3;0.2;;;;;;;;;;;;;-67
2023/05/17 06:01:27;;;;;;;;;;;;;;;11.09;62.01074;102836.3;;;;-67
2023/05/17 06:06:26;;;;;;;;;;;;;;;11.42;61.1875;102838.4;;;;-68
2023/05/17 06:11:28;;;;;;;;;;;;;;;11.96;60.64941;102840.9;;;;-67
2023/05/17 06:16:26;;;;;;;;;;;;;;;12.5;59.38281;102842.6;;;;-67
2023/05/17 06:21:27;;;;;;;;;;;;;;;13.01;58.16504;102841.6;;;;-66
2023/05/17 06:26:26;;;;;;;;;;;;;;;13.64;57.05859;102848.2;;;;-66
2023/05/17 06:26:36;;;;;;;0.2;0.1;;;;;;;;;;;;;-66
2023/05/17 06:31:26;;;;;;;;;;;;;;;14.01;56.4668;102847.9;;;;-68
2023/05/17 06:36:26;;;;;;;;;;;;;;;14.39;55.32422;102854.8;;;;-67
2023/05/17 06:41:29;;;;;;;;;;;;;;;14.83;54.6582;102854.7;;;;-68
2023/05/17 06:46:26;;;;;;;;;;;;;;;15.33;53.55957;102857.9;;;;-69
2023/05/17 06:51:29;;;;;;;;;;;;;;;15.61;52.72461;102860.9;;;;-67
2023/05/17 06:56:30;;;;;;;;;;;;;;;16.03;52.32324;102872.1;;;;-68
2023/05/17 06:56:42;;;;;;;0.2;0.1;;;;;;;;;;;;;-68
2023/05/17 07:01:26;;;;;;;;;;;;;;;15.93;52.32129;102871.7;;;;-68
2023/05/17 07:06:27;;;;;;;;;;;;;;;16.14;52.17773;102878.9;;;;-71
2023/05/17 07:11:27;;;;;;;;;;;;;;;16.43;51.54492;102882.6;;;;-68
2023/05/17 07:16:26;;;;;;;;;;;;;;;16.48;51.55078;102887.2;;;;-68
2023/05/17 07:21:27;;;;;;;;;;;;;;;16.69;50.75977;102883.8;;;;-67
2023/05/17 07:26:26;;;;;;;;;;;;;;;16.75;50.49414;102887.7;;;;-68
2023/05/17 07:26:38;;;;;;;0.2;0.1;;;;;;;;;;;;;-69
2023/05/17 07:31:26;;;;;;;;;;;;;;;16.92;49.52832;102891.8;;;;-68
2023/05/17 07:36:29;;;;;;;;;;;;;;;17.16;49.41992;102898.9;;;;-68
2023/05/17 07:41:26;;;;;;;;;;;;;;;17.47;49.18066;102900.7;;;;-68
2023/05/17 07:46:26;;;;;;;;;;;;;;;17.9;48.31055;102916.9;;;;-69
2023/05/17 07:51:26;;;;;;;;;;;;;;;18.16;48.07617;102924.3;;;;-68
2023/05/17 07:56:26;;;;;;;;;;;;;;;18.42;47.86621;102919.3;;;;-67
2023/05/17 07:56:41;;;;;;;0.3;0.1;;;;;;;;;;;;;-69
2023/05/17 08:01:26;;;;;;;;;;;;;;;18.21;47.47949;102921.7;;;;-69
2023/05/17 08:06:26;;;;;;;;;;;;;;;18.2;47.66113;102924.6;;;;-68
2023/05/17 08:11:30;;;;;;;;;;;;;;;18.55;47.89063;102935.4;;;;-68
2023/05/17 08:16:26;;;;;;;;;;;;;;;18.86;47.23047;102933.9;;;;-68
2023/05/17 08:21:26;;;;;;;;;;;;;;;18.69;47.08691;102932.4;;;;-69
2023/05/17 08:26:27;;;;;;;;;;;;;;;18.34;47.42578;102934.9;;;;-70
2023/05/17 08:26:43;;;;;;;0.2;0.1;;;;;;;;;;;;;-70
2023/05/17 08:31:26;;;;;;;;;;;;;;;18.17;47.95215;102939.9;;;;-70
2023/05/17 08:36:27;;;;;;;;;;;;;;;18.15;47.70117;102938;;;;-69
2023/05/17 08:41:27;;;;;;;;;;;;;;;18.55;47.75391;102934.2;;;;-69
2023/05/17 08:46:30;;;;;;;;;;;;;;;18.94;47.02246;102942;;;;-69
2023/05/17 08:51:27;;;;;;;;;;;;;;;18.78;46.74414;102940.8;;;;-71
2023/05/17 08:56:28;;;;;;;;;;;;;;;18.63;46.70508;102943;;;;-68
2023/05/17 08:56:50;;;;;;;0.2;0;;;;;;;;;;;;;-69
2023/05/17 09:01:28;;;;;;;;;;;;;;;18.86;46.93457;102943.1;;;;-68
2023/05/17 09:06:26;;;;;;;;;;;;;;;19.44;46.3916;102936.1;;;;-68
2023/05/17 09:11:32;;;;;;;;;;;;;;;19.94;45.88477;102934.5;;;;-67
2023/05/17 09:16:27;;;;;;;;;;;;;;;20.32;45.14551;102939.4;;;;-67
2023/05/17 09:21:27;;;;;;;;;;;;;;;20.61;44.2373;102942.4;;;;-73
2023/05/17 09:26:28;;;;;;;;;;;;;;;20.41;44.40039;102938.6;;;;-72
2023/05/17 09:26:49;;;;;;;0.2;0.1;;;;;;;;;;;;;-71
2023/05/17 09:31:32;;;;;;;;;;;;;;;20.68;44.30176;102942.1;;;;-72
2023/05/17 09:36:26;;;;;;;;;;;;;;;21.01;43.47559;102946.3;;;;-72
2023/05/17 09:41:29;;;;;;;;;;;;;;;21.4;43.375;102958.5;;;;-73
2023/05/17 09:46:27;;;;;;;;;;;;;;;21.79;42.54102;102958.2;;;;-72
2023/05/17 09:51:36;;;;;;;;;;;;;;;22.08;42.21191;102957;;;;-73
2023/05/17 09:56:30;;;;;;;;;;;;;;;22.26;41.68848;102962.4;;;;-72
2023/05/17 09:56:58;;;;;;;0.2;0.1;;;;;;;;;;;;;-72
2023/05/17 10:01:28;;;;;;;;;;;;;;;22.43;41.54395;102961.2;;;;-72
2023/05/17 10:06:28;;;;;;;;;;;;;;;22.32;41.43066;102959.7;;;;-68
2023/05/17 10:11:33;;;;;;;;;;;;;;;22.53;41.7373;102956.5;;;;-70
2023/05/17 10:16:28;;;;;;;;;;;;;;;22.57;40.95898;102965.2;;;;-69
2023/05/17 10:21:27;;;;;;;;;;;;;;;22.56;41.42969;102966.8;;;;-68
2023/05/17 10:26:27;;;;;;;;;;;;;;;22.84;40.96094;102962;;;;-69
2023/05/17 10:26:56;;;;;;;0.4;0.3;;;;;;;;;;;;;-68
2023/05/17 10:31:27;;;;;;;;;;;;;;;23.16;40.30957;102960.4;;;;-70
2023/05/17 10:36:27;;;;;;;;;;;;;;;23.37;39.9834;102961.8;;;;-71
2023/05/17 10:41:31;;;;;;;;;;;;;;;23.56;39.96582;102959;;;;-69
2023/05/17 10:46:27;;;;;;;;;;;;;;;23.63;39.79883;102959.2;;;;-67
2023/05/17 10:51:31;;;;;;;;;;;;;;;23.77;39.77734;102969.4;;;;-68
2023/05/17 10:56:27;;;;;;;;;;;;;;;23.83;40.56641;102969.6;;;;-69
2023/05/17 10:57:05;;;;;;;0.3;0.1;;;;;;;;;;;;;-68
2023/05/17 11:01:37;;;;;;;;;;;;;;;23.94;40.14844;102970.7;;;;-69
2023/05/17 11:06:29;;;;;;;;;;;;;;;24.08;40.38184;102968.5;;;;-70
2023/05/17 11:11:26;;;;;;;;;;;;;;;24.05;37.49121;102970.7;;;;-68
2023/05/17 11:16:30;;;;;;;;;;;;;;;24.16;40.34277;102969.1;;;;-68
2023/05/17 11:21:31;;;;;;;;;;;;;;;24.17;39.46582;102974.4;;;;-68
2023/05/17 11:26:31;;;;;;;;;;;;;;;24.2;41.69727;102979.3;;;;-67
2023/05/17 11:27:03;;;;;;;0.2;0;;;;;;;;;;;;;-68
2023/05/17 11:31:36;;;;;;;;;;;;;;;24.53;41.21973;102974.2;;;;-68
2023/05/17 11:36:26;;;;;;;;;;;;;;;24.86;40.44043;102974.4;;;;-67
2023/05/17 11:41:29;;;;;;;;;;;;;;;25.13;40.10547;102967;;;;-69
2023/05/17 11:46:27;;;;;;;;;;;;;;;25.11;40.49707;102970.4;;;;-67
2023/05/17 11:51:27;;;;;;;;;;;;;;;25.05;40.57324;102966;;;;-68
2023/05/17 11:56:29;;;;;;;;;;;;;;;24.91;40.69824;102963.5;;;;-69
2023/05/17 11:57:15;;;;;;;0.4;0.2;;;;;;;;;;;;;-69
2023/05/17 12:01:29;;;;;;;;;;;;;;;25.06;40.38867;102965;;;;-68
2023/05/17 12:06:27;;;;;;;;;;;;;;;25.38;37.76465;102965.9;;;;-67
2023/05/17 12:11:28;;;;;;;;;;;;;;;25.33;39.37109;102953.5;;;;-69
2023/05/17 12:16:28;;;;;;;;;;;;;;;25.46;38.7334;102954.1;;;;-69
2023/05/17 12:21:26;;;;;;;;;;;;;;;25.76;38.82813;102952.4;;;;-66
2023/05/17 12:26:26;;;;;;;;;;;;;;;25.69;39.24023;102945.1;;;;-69
2023/05/17 12:27:11;;;;;;;0.2;0.1;;;;;;;;;;;;;-68
2023/05/17 12:31:27;;;;;;;;;;;;;;;25.71;38.96289;102942.7;;;;-69
2023/05/17 12:36:27;;;;;;;;;;;;;;;25.87;39.04785;102946.9;;;;-67
2023/05/17 12:41:27;;;;;;;;;;;;;;;25.93;38.01953;102948.6;;;;-70
2023/05/17 12:46:26;;;;;;;;;;;;;;;25.74;39.99707;102950.8;;;;-69
2023/05/17 12:51:26;;;;;;;;;;;;;;;25.7;39.88965;102943.3;;;;-69
2023/05/17 12:56:27;;;;;;;;;;;;;;;26.07;38.65723;102943.3;;;;-68
2023/05/17 12:57:20;;;;;;;0.6;0.2;;;;;;;;;;;;;-69
2023/05/17 13:01:26;;;;;;;;;;;;;;;26.01;39.48828;102944.6;;;;-68
2023/05/17 13:06:26;;;;;;;;;;;;;;;26.11;38.64941;102941.5;;;;-69
2023/05/17 13:11:27;;;;;;;;;;;;;;;26.21;38.93652;102947.4;;;;-68
2023/05/17 13:16:34;;;;;;;;;;;;;;;26.21;37.9043;102943.6;;;;-69
2023/05/17 13:21:27;;;;;;;;;;;;;;;26.07;39.18066;102938.4;;;;-68
2023/05/17 13:26:28;;;;;;;;;;;;;;;26.08;38.80957;102944.4;;;;-67
2023/05/17 13:27:21;;;;;;;0.2;0;;;;;;;;;;;;;-69
2023/05/17 13:31:29;;;;;;;;;;;;;;;26.11;37.98828;102932.7;;;;-68
2023/05/17 13:36:26;;;;;;;;;;;;;;;26.31;38.65527;102930.6;;;;-69
2023/05/17 13:41:26;;;;;;;;;;;;;;;26.35;37.39355;102924.3;;;;-69
2023/05/17 13:46:26;;;;;;;;;;;;;;;26.44;38.25977;102924;;;;-68
2023/05/17 13:51:26;;;;;;;;;;;;;;;26.33;37.00781;102922.8;;;;-69
2023/05/17 13:56:26;;;;;;;;;;;;;;;26.5;35.8252;102931;;;;-70
2023/05/17 13:57:26;;;;;;;0.3;0.1;;;;;;;;;;;;;-68
2023/05/17 14:01:26;;;;;;;;;;;;;;;26.53;37.68652;102927.8;;;;-67
2023/05/17 14:06:28;;;;;;;;;;;;;;;26.57;38.00391;102923.6;;;;-68
2023/05/17 14:11:26;;;;;;;;;;;;;;;26.28;37.86328;102918.3;;;;-68
2023/05/17 14:16:26;;;;;;;;;;;;;;;26.11;36.75781;102920.2;;;;-69
2023/05/17 14:21:27;;;;;;;;;;;;;;;25.68;37.84766;102922.4;;;;-67
2023/05/17 14:26:26;;;;;;;;;;;;;;;25.58;36.87695;102927;;;;-70
2023/05/17 14:27:28;;;;;;;2.9;0.2;;;;;;;;;;;;;-71
2023/05/17 14:31:27;;;;;;;;;;;;;;;25.73;38.7793;102919.9;;;;-68
2023/05/17 14:36:26;;;;;;;;;;;;;;;25.69;37.11816;102929.2;;;;-69
2023/05/17 14:41:26;;;;;;;;;;;;;;;25.29;38.23145;102926.3;;;;-69
2023/05/17 14:46:26;;;;;;;;;;;;;;;25.4;36.10938;102928;;;;-68
2023/05/17 14:51:26;;;;;;;;;;;;;;;25.47;37.29785;102923.9;;;;-70
2023/05/17 14:56:26;;;;;;;;;;;;;;;25.67;37.22168;102924.7;;;;-69
2023/05/17 14:57:33;;;;;;;0.3;0.2;;;;;;;;;;;;;-68
2023/05/17 15:01:26;;;;;;;;;;;;;;;25.83;38.18555;102918.7;;;;-70
2023/05/17 15:06:26;;;;;;;;;;;;;;;25.94;35.25781;102921.4;;;;-68
2023/05/17 15:11:26;;;;;;;;;;;;;;;25.68;37.20996;102917.1;;;;-67
2023/05/17 15:16:26;;;;;;;;;;;;;;;25.52;37.23145;102920.9;;;;-68
2023/05/17 15:21:28;;;;;;;;;;;;;;;25.64;37.60059;102927.9;;;;-68
2023/05/17 15:26:26;;;;;;;;;;;;;;;25.67;36.89551;102926.3;;;;-69
2023/05/17 15:27:37;;;;;;;0.2;0.1;;;;;;;;;;;;;-68
2023/05/17 15:31:30;;;;;;;;;;;;;;;25.5;37.50879;102925.8;;;;-69
2023/05/17 15:36:26;;;;;;;;;;;;;;;25.34;35.84863;102925.8;;;;-70
2023/05/17 15:41:27;;;;;;;;;;;;;;;24.65;37.75;102912.4;;;;-69
2023/05/17 15:46:26;;;;;;;;;;;;;;;24.16;40.74609;102916;;;;-68
2023/05/17 15:51:26;;;;;;;;;;;;;;;24.01;40.47949;102909.5;;;;-68
2023/05/17 15:56:27;;;;;;;;;;;;;;;24;39.4043;102918.3;;;;-68
2023/05/17 15:57:42;;;;;;;0.2;0;;;;;;;;;;;;;-67
2023/05/17 16:01:26;;;;;;;;;;;;;;;23.97;38.90527;102914.6;;;;-67
2023/05/17 16:06:26;;;;;;;;;;;;;;;23.89;39.34863;102923.1;;;;-68
2023/05/17 16:11:26;;;;;;;;;;;;;;;23.71;38.69727;102930;;;;-68
2023/05/17 16:16:26;;;;;;;;;;;;;;;23.53;38.07129;102934.8;;;;-68
2023/05/17 16:21:26;;;;;;;;;;;;;;;23.42;39.20313;102936;;;;-68
2023/05/17 16:26:26;;;;;;;;;;;;;;;23.34;39.06934;102939.9;;;;-69
2023/05/17 16:27:46;;;;;;;0.2;0.1;;;;;;;;;;;;;-68
2023/05/17 16:31:27;;;;;;;;;;;;;;;23.14;38.97168;102940.4;;;;-69
2023/05/17 16:36:26;;;;;;;;;;;;;;;22.89;38.91504;102939.8;;;;-68
2023/05/17 16:41:27;;;;;;;;;;;;;;;22.65;39.57324;102939.5;;;;-68
2023/05/17 16:46:26;;;;;;;;;;;;;;;22.43;39.34668;102946.1;;;;-70
2023/05/17 16:51:28;;;;;;;;;;;;;;;22.06;39.1875;102948.8;;;;-71
2023/05/17 16:56:26;;;;;;;;;;;;;;;21.72;40.07715;102950;;;;-71
2023/05/17 16:57:50;;;;;;;0.2;0.1;;;;;;;;;;;;;-72
2023/05/17 17:01:26;;;;;;;;;;;;;;;21.39;40.5293;102956.8;;;;-72
2023/05/17 17:06:26;;;;;;;;;;;;;;;21.1;41.61523;102950.9;;;;-73
2023/05/17 17:11:26;;;;;;;;;;;;;;;20.86;41.05469;102950.1;;;;-71
2023/05/17 17:16:27;;;;;;;;;;;;;;;20.62;40.78027;102940.8;;;;-72
2023/05/17 17:21:26;;;;;;;;;;;;;;;20.45;40.86719;102938.6;;;;-69
2023/05/17 17:26:26;;;;;;;;;;;;;;;20.12;40.32227;102950.2;;;;-68
2023/05/17 17:27:54;;;;;;;0.2;0.1;;;;;;;;;;;;;-66
2023/05/17 17:31:26;;;;;;;;;;;;;;;19.77;39.93652;102959.4;;;;-69
2023/05/17 17:36:26;;;;;;;;;;;;;;;19.56;41.31152;102956.9;;;;-68
2023/05/17 17:41:26;;;;;;;;;;;;;;;19.34;41.62305;102957;;;;-68
2023/05/17 17:46:28;;;;;;;;;;;;;;;19.14;41.88965;102962;;;;-68
2023/05/17 17:51:26;;;;;;;;;;;;;;;18.9;42.02539;102966.4;;;;-68
2023/05/17 17:56:26;;;;;;;;;;;;;;;18.68;41.75391;102965.3;;;;-69
2023/05/17 17:57:57;;;;;;;0.2;0.1;;;;;;;;;;;;;-69
2023/05/17 18:01:26;;;;;;;;;;;;;;;18.41;42.09375;102972.3;;;;-68
2023/05/17 18:06:29;;;;;;;;;;;;;;;18.2;42.47168;102976.4;;;;-67
2023/05/17 18:11:26;;;;;;;;;;;;;;;18.01;42.6582;102982.4;;;;-68
2023/05/17 18:16:26;;;;;;;;;;;;;;;17.81;43.37793;102981;;;;-68
2023/05/17 18:21:29;;;;;;;;;;;;;;;17.6;43.17676;102979.3;;;;-69
2023/05/17 18:26:26;;;;;;;;;;;;;;;17.42;43.14648;102980.3;;;;-68
2023/05/17 18:27:59;;;;;;;0.2;0;;;;;;;;;;;;;-70
2023/05/17 18:31:26;;;;;;;;;;;;;;;17.27;43.66699;102979.8;;;;-68
2023/05/17 18:36:26;;;;;;;;;;;;;;;17.04;42.87207;102981.5;;;;-68
2023/05/17 18:41:26;;;;;;;;;;;;;;;16.84;43.74902;102985.6;;;;-69
2023/05/17 18:46:26;;;;;;;;;;;;;;;16.57;43.86914;102988;;;;-72
2023/05/17 18:51:27;;;;;;;;;;;;;;;16.3;44.10352;102988.6;;;;-71
2023/05/17 18:56:29;;;;;;;;;;;;;;;16.07;44.44336;102992.3;;;;-68
2023/05/17 18:58:02;;;;;;;0.2;0.1;;;;;;;;;;;;;-68
2023/05/17 19:01:26;;;;;;;;;;;;;;;15.83;44.12402;102992.4;;;;-69
2023/05/17 19:06:26;;;;;;;;;;;;;;;15.58;43.95313;102996.1;;;;-68
2023/05/17 19:11:27;;;;;;;;;;;;;;;15.33;44.24414;102994.3;;;;-67
2023/05/17 19:16:26;;;;;;;;;;;;;;;15.08;44.11719;102997.6;;;;-69
2023/05/17 19:21:26;;;;;;;;;;;;;;;14.86;44.57031;102997.9;;;;-68
2023/05/17 19:26:26;;;;;;;;;;;;;;;14.62;44.46582;103004.3;;;;-68
2023/05/17 19:28:05;;;;;;;0.2;0.1;;;;;;;;;;;;;-68
2023/05/17 19:31:29;;;;;;;;;;;;;;;14.37;44.74512;103006.5;;;;-73
2023/05/17 19:36:26;;;;;;;;;;;;;;;14.13;44.86719;103009.1;;;;-68
2023/05/17 19:41:26;;;;;;;;;;;;;;;13.91;45.44238;103009.2;;;;-67
2023/05/17 19:46:26;;;;;;;;;;;;;;;13.72;45.52344;103011.3;;;;-67
2023/05/17 19:51:26;;;;;;;;;;;;;;;13.54;45.80957;103018.9;;;;-69
2023/05/17 19:56:26;;;;;;;;;;;;;;;13.33;45.83203;103020.4;;;;-69
2023/05/17 19:58:07;;;;;;;0.2;0;;;;;;;;;;;;;-68
2023/05/17 20:01:26;;;;;;;;;;;;;;;13.13;45.96777;103017.1;;;;-67
2023/05/17 20:06:26;;;;;;;;;;;;;;;12.99;46.33496;103011.7;;;;-69
2023/05/17 20:11:26;;;;;;;;;;;;;;;12.79;46.51563;103009.8;;;;-68
2023/05/17 20:16:29;;;;;;;;;;;;;;;12.59;46.86621;103011.7;;;;-68
2023/05/17 20:21:26;;;;;;;;;;;;;;;12.42;46.84863;103002.2;;;;-67
2023/05/17 20:26:30;;;;;;;;;;;;;;;12.28;47.20215;103008;;;;-67
2023/05/17 20:28:09;;;;;;;0.2;0;;;;;;;;;;;;;-69
2023/05/17 20:31:26;;;;;;;;;;;;;;;12.12;47.34375;103010.8;;;;-68
2023/05/17 20:36:26;;;;;;;;;;;;;;;11.99;47.63086;103010.2;;;;-68
2023/05/17 20:41:26;;;;;;;;;;;;;;;11.87;47.71973;103003.4;;;;-69
2023/05/17 20:46:28;;;;;;;;;;;;;;;11.74;47.86133;103008.8;;;;-68
2023/05/17 20:51:26;;;;;;;;;;;;;;;11.61;48.12598;103008;;;;-68
2023/05/17 20:56:26;;;;;;;;;;;;;;;11.45;48.05371;103012.6;;;;-67
2023/05/17 20:58:10;;;;;;;0.2;0;;;;;;;;;;;;;-68
2023/05/17 21:01:26;;;;;;;;;;;;;;;11.35;48.50195;103019.9;;;;-67
2023/05/17 21:06:34;;;;;;;;;;;;;;;11.24;48.30957;103023.3;;;;-70
2023/05/17 21:11:27;;;;;;;;;;;;;;;11.09;48.54004;103015.3;;;;-68
2023/05/17 21:16:29;;;;;;;;;;;;;;;10.96;48.6709;103022.1;;;;-67
2023/05/17 21:21:26;;;;;;;;;;;;;;;10.88;48.5498;103014.9;;;;-67
2023/05/17 21:26:26;;;;;;;;;;;;;;;10.77;48.78418;103012.1;;;;-67
2023/05/17 21:28:19;;;;;;;0.3;0.2;;;;;;;;;;;;;-69
2023/05/17 21:31:26;;;;;;;;;;;;;;;10.66;49.08301;103015.3;;;;-66
2023/05/17 21:36:26;;;;;;;;;;;;;;;10.56;49.07227;103012;;;;-68
2023/05/17 21:41:28;;;;;;;;;;;;;;;10.45;49.03711;103009.6;;;;-69
2023/05/17 21:46:26;;;;;;;;;;;;;;;10.35;49.10449;103011.6;;;;-68
2023/05/17 21:51:26;;;;;;;;;;;;;;;10.23;49.47168;103007.9;;;;-68
2023/05/17 21:56:26;;;;;;;;;;;;;;;10.19;49.64355;103011.1;;;;-68
2023/05/17 21:58:15;;;;;;;0.2;0.1;;;;;;;;;;;;;-67
2023/05/17 22:01:26;;;;;;;;;;;;;;;10.13;49.59375;103019;;;;-68
2023/05/17 22:06:28;;;;;;;;;;;;;;;10.01;49.72559;103019;;;;-67
2023/05/17 22:11:27;;;;;;;;;;;;;;;9.93;49.88281;103013.5;;;;-67
2023/05/17 22:16:26;;;;;;;;;;;;;;;9.88;49.66504;103012;;;;-67
2023/05/17 22:21:29;;;;;;;;;;;;;;;9.76;49.99707;103011.9;;;;-68
2023/05/17 22:26:26;;;;;;;;;;;;;;;9.66;50.28613;103011.3;;;;-68
2023/05/17 22:28:14;;;;;;;0.2;0.1;;;;;;;;;;;;;-68
2023/05/17 22:31:26;;;;;;;;;;;;;;;9.61;50.16895;103013.5;;;;-67
2023/05/17 22:36:27;;;;;;;;;;;;;;;9.5;50.08984;103009.7;;;;-69
2023/05/17 22:41:26;;;;;;;;;;;;;;;9.44;50.21582;103011.3;;;;-66
2023/05/17 22:46:26;;;;;;;;;;;;;;;9.36;50.35156;103017.7;;;;-67
2023/05/17 22:51:28;;;;;;;;;;;;;;;9.34;50.41699;103020.1;;;;-68
2023/05/17 22:56:26;;;;;;;;;;;;;;;9.22;50.44629;103021.1;;;;-68
2023/05/17 22:58:18;;;;;;;0.2;0.1;;;;;;;;;;;;;-69
2023/05/17 23:01:26;;;;;;;;;;;;;;;9.17;50.2959;103018.9;;;;-65
2023/05/17 23:06:32;;;;;;;;;;;;;;;9.13;50.72559;103014.5;;;;-67
2023/05/17 23:11:27;;;;;;;;;;;;;;;9.03;50.80371;103012.8;;;;-67
2023/05/17 23:16:27;;;;;;;;;;;;;;;8.99;51.03223;103016.8;;;;-68
2023/05/17 23:21:34;;;;;;;;;;;;;;;8.91;51.15527;103026.2;;;;-66
2023/05/17 23:26:27;;;;;;;;;;;;;;;8.88;50.91895;103015.5;;;;-67
2023/05/17 23:28:17;;;;;;;0.2;0.1;;;;;;;;;;;;;-68
2023/05/17 23:31:28;;;;;;;;;;;;;;;8.8;50.89746;103019.2;;;;-65
2023/05/17 23:36:26;;;;;;;;;;;;;;;8.78;51.1416;103017.3;;;;-67
2023/05/17 23:41:28;;;;;;;;;;;;;;;8.67;51.11719;103012.5;;;;-69
2023/05/17 23:46:28;;;;;;;;;;;;;;;8.64;50.99121;103009.5;;;;-67
2023/05/17 23:51:26;;;;;;;;;;;;;;;8.64;50.97949;103008.9;;;;-67
2023/05/17 23:56:26;;;;;;;;;;;;;;;8.59;51.43945;103006.4;;;;-68
2023/05/17 23:58:17;;;;;;;0.2;0.1;;;;;;;;;;;;;-67
